Time;durP1;ratioP1;P1;durP2;ratioP2;P2;SDS_P1;SDS_P2;PMS_P1;PMS_P2;Temp;Humidity;BMP_temperature;BMP_pressure;BME280_temperature;BME280_humidity;BME280_pressure;Samples;Min_cycle;Max_cycle;Signal;HPM_P1;HPM_P2
2021/01/28 00:00:07;;;;;;;2.15;0.52;;;15.30;62.30;;;;;;6336347;22;19995;-72
2021/01/28 00:02:33;;;;;;;1.73;0.60;;;15.30;62.20;;;;;;6338090;22;20053;-72
2021/01/28 00:04:59;;;;;;;0.63;0.50;;;15.30;62.10;;;;;;6310197;22;20417;-72
2021/01/28 00:07:24;;;;;;;2.42;0.90;;;15.30;62.10;;;;;;6310817;22;20091;-73
2021/01/28 00:09:50;;;;;;;1.50;0.80;;;15.30;62.00;;;;;;6338470;22;20351;-73
2021/01/28 00:12:16;;;;;;;1.40;0.75;;;15.30;62.00;;;;;;6337637;22;20003;-73
2021/01/28 00:14:42;;;;;;;1.92;0.70;;;15.30;61.90;;;;;;6337754;22;20003;-73
2021/01/28 00:17:07;;;;;;;2.35;0.95;;;15.40;61.80;;;;;;6337556;22;19999;-72
2021/01/28 00:19:33;;;;;;;1.40;0.70;;;15.40;61.90;;;;;;6338627;22;20006;-73
2021/01/28 00:21:59;;;;;;;0.93;0.70;;;15.40;61.80;;;;;;6338204;22;19999;-73
2021/01/28 00:24:24;;;;;;;4.38;0.57;;;15.50;61.80;;;;;;6338394;22;20006;-73
2021/01/28 00:26:50;;;;;;;1.88;0.75;;;15.40;61.70;;;;;;6310049;22;20003;-73
2021/01/28 00:29:16;;;;;;;0.93;0.65;;;15.40;61.60;;;;;;6310669;22;20044;-71
2021/01/28 00:31:42;;;;;;;2.10;0.70;;;15.50;61.70;;;;;;6337935;22;20037;-73
2021/01/28 00:34:07;;;;;;;3.13;0.75;;;15.40;61.60;;;;;;6338020;22;20045;-73
2021/01/28 00:36:33;;;;;;;1.58;0.80;;;15.40;61.60;;;;;;6311989;22;20081;-73
2021/01/28 00:38:59;;;;;;;1.02;0.75;;;15.50;61.60;;;;;;6339985;22;19995;-72
2021/01/28 00:41:24;;;;;;;0.70;0.47;;;15.40;61.60;;;;;;6340061;22;19998;-72
2021/01/28 00:43:50;;;;;;;0.63;0.50;;;15.40;61.60;;;;;;6312459;22;20094;-72
2021/01/28 00:46:16;;;;;;;0.70;0.57;;;15.40;61.60;;;;;;6339438;22;20033;-72
2021/01/28 00:48:41;;;;;;;0.68;0.50;;;15.50;61.70;;;;;;6312140;22;20007;-73
2021/01/28 00:51:07;;;;;;;0.82;0.52;;;15.40;61.70;;;;;;6339960;22;20073;-72
2021/01/28 00:53:33;;;;;;;3.20;0.63;;;15.40;61.70;;;;;;6312028;22;20007;-73
2021/01/28 00:55:59;;;;;;;1.42;0.60;;;15.40;61.70;;;;;;6337232;22;20002;-72
2021/01/28 00:58:26;;;;;;;0.93;0.60;;;15.40;61.60;;;;;;6337584;22;20014;-73
2021/01/28 01:00:53;;;;;;;1.88;0.80;;;15.40;61.60;;;;;;6339098;22;20014;-72
2021/01/28 01:03:21;;;;;;;1.42;0.70;;;15.40;61.60;;;;;;6339314;22;20078;-73
2021/01/28 01:05:48;;;;;;;0.65;0.60;;;15.40;61.60;;;;;;6311874;22;20013;-73
2021/01/28 01:08:23;;;;;;;1.77;0.63;;;15.40;61.60;;;;;;6312011;22;20003;-72
2021/01/28 01:10:52;;;;;;;0.95;0.50;;;15.40;61.60;;;;;;6311608;22;20003;-72
2021/01/28 01:13:26;;;;;;;0.63;0.52;;;15.40;61.60;;;;;;6310827;22;20006;-72
2021/01/28 01:15:53;;;;;;;3.22;0.50;;;15.40;61.70;;;;;;6311834;22;20034;-72
2021/01/28 01:18:22;;;;;;;1.02;0.60;;;15.30;61.70;;;;;;6311636;22;20010;-72
2021/01/28 01:20:48;;;;;;;0.73;0.50;;;15.30;61.70;;;;;;6339765;22;20049;-73
2021/01/28 01:23:14;;;;;;;2.47;0.60;;;15.40;61.70;;;;;;6311908;22;19999;-73
2021/01/28 01:25:40;;;;;;;1.58;0.60;;;15.40;61.70;;;;;;6339556;22;20044;-73
2021/01/28 01:28:05;;;;;;;1.05;0.60;;;15.40;61.70;;;;;;6339290;22;19995;-72
2021/01/28 01:30:32;;;;;;;0.50;0.50;;;15.30;61.70;;;;;;6337998;22;20051;-72
2021/01/28 01:32:58;;;;;;;0.75;0.65;;;15.40;61.70;;;;;;6340006;22;20043;-72
2021/01/28 01:35:24;;;;;;;1.35;0.75;;;15.30;61.70;;;;;;6339454;22;20359;-72
2021/01/28 01:37:52;;;;;;;1.48;0.77;;;15.30;61.80;;;;;;6338115;22;20053;-72
2021/01/28 01:40:25;;;;;;;0.68;0.55;;;15.40;61.80;;;;;;6339013;22;19998;-72
2021/01/28 01:42:51;;;;;;;1.08;0.55;;;15.30;61.80;;;;;;6312233;22;20018;-72
2021/01/28 01:45:50;;;;;;;1.20;0.70;;;15.30;61.80;;;;;;6311839;22;20003;-72
2021/01/28 01:48:22;;;;;;;2.08;0.60;;;15.30;61.80;;;;;;6305232;22;20417;-72
2021/01/28 01:50:56;;;;;;;1.20;0.80;;;15.30;61.80;;;;;;6338184;22;20316;-72
2021/01/28 01:53:25;;;;;;;0.47;0.43;;;15.30;61.70;;;;;;6311606;22;20061;-72
2021/01/28 01:55:58;;;;;;;1.08;0.50;;;15.30;61.70;;;;;;6338679;22;20356;-72
2021/01/28 01:58:46;;;;;;;0.98;0.52;;;15.30;61.70;;;;;;6339580;22;19999;-72
2021/01/28 02:01:13;;;;;;;1.10;0.50;;;15.30;61.70;;;;;;6339208;22;20024;-72
2021/01/28 02:03:40;;;;;;;1.20;0.55;;;15.30;61.60;;;;;;6339113;22;20037;-72
2021/01/28 02:06:15;;;;;;;0.47;0.47;;;15.30;61.60;;;;;;6339141;22;20010;-72
2021/01/28 02:08:41;;;;;;;1.33;0.70;;;15.30;61.60;;;;;;6338560;22;20021;-72
2021/01/28 02:11:10;;;;;;;0.88;0.60;;;15.40;61.60;;;;;;6338925;22;20412;-72
2021/01/28 02:13:36;;;;;;;1.00;0.65;;;15.40;61.50;;;;;;6311387;22;20011;-72
2021/01/28 02:16:03;;;;;;;0.75;0.57;;;15.40;61.50;;;;;;6339145;22;20006;-72
2021/01/28 02:18:30;;;;;;;2.67;0.70;;;15.40;61.50;;;;;;6337561;22;20002;-72
2021/01/28 02:21:00;;;;;;;0.88;0.45;;;15.40;61.50;;;;;;6337258;22;20317;-73
2021/01/28 02:24:01;;;;;;;1.13;0.50;;;15.40;61.40;;;;;;6338850;22;20446;-72
2021/01/28 02:26:28;;;;;;;1.17;0.43;;;15.30;61.40;;;;;;6338623;22;19995;-72
2021/01/28 02:28:54;;;;;;;1.33;0.60;;;15.40;61.40;;;;;;6337036;22;20034;-72
2021/01/28 02:31:21;;;;;;;4.75;0.57;;;15.40;61.40;;;;;;6338543;22;20408;-72
2021/01/28 02:33:53;;;;;;;1.17;0.67;;;15.40;61.40;;;;;;6310542;22;20047;-73
2021/01/28 02:36:19;;;;;;;0.70;0.50;;;15.50;61.30;;;;;;6338994;22;19995;-72
2021/01/28 02:38:45;;;;;;;0.50;0.40;;;15.40;61.30;;;;;;6310864;22;20075;-73
2021/01/28 02:41:12;;;;;;;1.63;0.70;;;15.40;61.30;;;;;;6311051;22;20413;-72
2021/01/28 02:43:38;;;;;;;0.60;0.40;;;15.40;61.30;;;;;;6337231;22;20006;-72
2021/01/28 02:46:10;;;;;;;1.10;0.68;;;15.50;61.30;;;;;;6338091;22;20302;-72
2021/01/28 02:48:37;;;;;;;1.27;0.47;;;15.50;61.30;;;;;;6338307;22;20388;-72
2021/01/28 02:51:04;;;;;;;0.75;0.50;;;15.50;61.20;;;;;;6311688;22;20006;-72
2021/01/28 02:53:46;;;;;;;0.73;0.50;;;15.40;61.30;;;;;;6311491;22;20010;-72
2021/01/28 02:56:12;;;;;;;2.63;1.17;;;15.50;61.20;;;;;;6338272;22;20448;-72
2021/01/28 02:58:37;;;;;;;1.90;0.70;;;15.40;61.30;;;;;;6336364;22;20080;-71
2021/01/28 03:01:04;;;;;;;0.98;0.60;;;15.40;61.30;;;;;;6336926;22;20011;-72
2021/01/28 03:03:30;;;;;;;1.23;0.88;;;15.50;61.20;;;;;;6285271;22;20034;-72
2021/01/28 03:05:56;;;;;;;0.93;0.50;;;15.40;61.20;;;;;;6338039;22;20416;-73
2021/01/28 03:08:24;;;;;;;1.13;0.50;;;15.40;61.30;;;;;;6338854;22;20003;-73
2021/01/28 03:10:49;;;;;;;0.97;0.60;;;15.50;61.30;;;;;;6338068;22;19995;-72
2021/01/28 03:13:15;;;;;;;0.65;0.50;;;15.40;61.30;;;;;;6338018;22;20007;-72
2021/01/28 03:15:41;;;;;;;0.55;0.40;;;15.40;61.20;;;;;;6338168;22;20238;-72
2021/01/28 03:18:06;;;;;;;0.50;0.45;;;15.40;61.30;;;;;;6337223;22;20003;-72
2021/01/28 03:20:34;;;;;;;0.52;0.43;;;15.40;61.20;;;;;;6338599;22;20074;-72
2021/01/28 03:22:59;;;;;;;0.80;0.40;;;15.40;61.20;;;;;;6337125;22;20007;-72
2021/01/28 03:25:26;;;;;;;1.35;0.57;;;15.40;61.10;;;;;;6338184;22;20371;-72
2021/01/28 03:27:52;;;;;;;0.60;0.30;;;15.40;61.10;;;;;;6338071;22;20052;-72
2021/01/28 03:30:28;;;;;;;1.33;0.40;;;15.40;61.20;;;;;;6310076;22;20006;-72
2021/01/28 03:32:54;;;;;;;0.80;0.30;;;15.40;61.10;;;;;;6335557;22;20321;-72
2021/01/28 03:35:21;;;;;;;1.40;0.38;;;15.40;61.20;;;;;;6338325;22;19995;-72
2021/01/28 03:37:47;;;;;;;1.13;0.50;;;15.40;61.20;;;;;;6310852;22;20007;-72
2021/01/28 03:40:15;;;;;;;1.08;0.98;;;15.40;61.20;;;;;;6337763;22;20245;-72
2021/01/28 03:42:45;;;;;;;0.85;0.50;;;15.40;61.10;;;;;;6310269;22;20075;-72
2021/01/28 03:45:12;;;;;;;1.17;0.50;;;15.50;61.20;;;;;;6336293;22;20106;-73
2021/01/28 03:47:37;;;;;;;0.50;0.45;;;15.40;61.20;;;;;;6338708;22;20665;-72
2021/01/28 03:50:04;;;;;;;1.38;0.60;;;15.40;61.20;;;;;;6336566;22;19994;-72
2021/01/28 03:52:30;;;;;;;0.75;0.50;;;15.40;61.20;;;;;;6338140;22;20009;-72
2021/01/28 03:54:56;;;;;;;0.43;0.30;;;15.40;61.20;;;;;;6336367;22;20038;-72
2021/01/28 03:57:21;;;;;;;0.85;0.60;;;15.40;61.20;;;;;;6338519;22;19998;-72
2021/01/28 03:59:47;;;;;;;1.67;0.50;;;15.30;61.20;;;;;;6337880;22;20006;-72
2021/01/28 04:02:12;;;;;;;0.65;0.40;;;15.40;61.30;;;;;;6338554;22;20326;-72
2021/01/28 04:04:38;;;;;;;0.55;0.40;;;15.40;61.30;;;;;;6337959;22;20005;-72
2021/01/28 04:07:04;;;;;;;1.10;0.40;;;15.30;61.30;;;;;;6337784;22;20002;-72
2021/01/28 04:09:29;;;;;;;0.85;0.55;;;15.40;61.30;;;;;;6338468;22;20018;-72
2021/01/28 04:11:55;;;;;;;0.82;0.50;;;15.40;61.30;;;;;;6336373;22;19999;-72
2021/01/28 04:14:21;;;;;;;0.70;0.40;;;15.30;61.30;;;;;;6337758;22;20029;-72
2021/01/28 04:16:46;;;;;;;0.95;0.60;;;15.30;61.30;;;;;;6338635;22;20048;-72
2021/01/28 04:19:12;;;;;;;0.50;0.50;;;15.30;61.30;;;;;;6336571;22;20063;-72
2021/01/28 04:21:38;;;;;;;0.57;0.50;;;15.30;61.30;;;;;;6311146;22;20056;-72
2021/01/28 04:24:04;;;;;;;0.40;0.40;;;15.30;61.30;;;;;;6336682;22;20007;-72
2021/01/28 04:26:30;;;;;;;1.73;0.52;;;15.30;61.30;;;;;;6310198;22;20638;-72
2021/01/28 04:29:00;;;;;;;0.60;0.43;;;15.30;61.40;;;;;;6338039;22;20002;-72
2021/01/28 04:31:26;;;;;;;0.80;0.40;;;15.30;61.30;;;;;;6338079;22;20002;-72
2021/01/28 04:33:51;;;;;;;0.40;0.40;;;15.30;61.40;;;;;;6337776;22;20328;-72
2021/01/28 04:36:17;;;;;;;0.35;0.32;;;15.30;61.40;;;;;;6310833;22;20080;-72
2021/01/28 04:38:43;;;;;;;0.40;0.40;;;15.30;61.40;;;;;;6335991;22;19999;-72
2021/01/28 04:41:18;;;;;;;0.68;0.50;;;15.30;61.40;;;;;;6337847;22;20010;-72
2021/01/28 04:43:47;;;;;;;0.73;0.45;;;15.30;61.40;;;;;;6310398;22;20089;-72
2021/01/28 04:46:21;;;;;;;0.73;0.47;;;15.30;61.40;;;;;;6337837;22;20078;-72
2021/01/28 04:48:48;;;;;;;0.45;0.45;;;15.30;61.40;;;;;;6338042;22;20074;-72
2021/01/28 04:51:14;;;;;;;0.55;0.43;;;15.30;61.30;;;;;;6338132;22;19999;-72
2021/01/28 04:53:48;;;;;;;0.55;0.40;;;15.30;61.30;;;;;;6337774;22;20365;-72
2021/01/28 04:56:18;;;;;;;0.32;0.32;;;15.30;61.30;;;;;;6337610;22;19999;-72
2021/01/28 04:58:44;;;;;;;1.00;0.57;;;15.30;61.20;;;;;;6338164;22;20010;-72
2021/01/28 05:01:10;;;;;;;2.10;1.10;;;15.30;61.20;;;;;;6337789;22;20428;-72
2021/01/28 05:03:41;;;;;;;1.10;0.63;;;15.30;61.10;;;;;;6337808;22;19998;-72
2021/01/28 05:06:07;;;;;;;0.52;0.30;;;15.40;61.10;;;;;;6338146;22;20011;-72
2021/01/28 05:08:33;;;;;;;0.30;0.30;;;15.30;61.10;;;;;;6337891;22;19995;-72
2021/01/28 05:11:00;;;;;;;0.32;0.32;;;15.40;61.10;;;;;;6337841;22;20033;-72
2021/01/28 05:13:34;;;;;;;0.85;0.40;;;15.40;61.00;;;;;;6336748;22;20015;-72
2021/01/28 05:16:32;;;;;;;1.45;0.43;;;15.40;61.00;;;;;;6337550;22;20002;-72
2021/01/28 05:19:07;;;;;;;1.20;0.60;;;15.40;61.00;;;;;;6310209;22;20056;-72
2021/01/28 05:21:42;;;;;;;0.52;0.40;;;15.40;61.00;;;;;;6338562;22;19999;-72
2021/01/28 05:24:29;;;;;;;0.30;0.30;;;15.40;60.90;;;;;;6339364;22;20002;-72
2021/01/28 05:27:06;;;;;;;0.73;0.45;;;15.40;60.90;;;;;;6337782;22;20007;-72
2021/01/28 05:29:39;;;;;;;2.35;0.50;;;15.40;60.90;;;;;;6312050;22;20336;-72
2021/01/28 05:32:21;;;;;;;1.85;0.47;;;15.40;60.80;;;;;;6337477;22;20041;-72
2021/01/28 05:34:47;;;;;;;0.40;0.40;;;15.40;60.80;;;;;;6338163;22;20077;-72
2021/01/28 05:37:25;;;;;;;0.68;0.50;;;15.40;60.70;;;;;;6338266;22;20026;-72
2021/01/28 05:40:16;;;;;;;0.40;0.40;;;15.50;60.70;;;;;;6338386;22;20029;-73
2021/01/28 05:42:42;;;;;;;0.60;0.50;;;15.40;60.60;;;;;;6338934;22;20470;-72
2021/01/28 05:45:34;;;;;;;0.40;0.22;;;15.50;60.60;;;;;;6338776;22;20328;-72
2021/01/28 05:48:23;;;;;;;0.35;0.30;;;15.50;60.60;;;;;;6339067;22;20002;-72
2021/01/28 05:51:21;;;;;;;0.40;0.40;;;15.50;60.60;;;;;;6312022;22;20026;-72
2021/01/28 05:54:01;;;;;;;0.30;0.30;;;15.50;60.60;;;;;;6339256;22;20023;-72
2021/01/28 05:56:29;;;;;;;1.20;0.30;;;15.50;60.60;;;;;;6339184;22;20044;-72
2021/01/28 05:59:20;;;;;;;0.45;0.45;;;15.50;60.50;;;;;;6311668;22;20002;-72
2021/01/28 06:02:11;;;;;;;0.32;0.32;;;15.50;60.50;;;;;;6339134;22;20014;-72
2021/01/28 06:05:11;;;;;;;1.92;0.57;;;15.50;60.50;;;;;;6311528;22;20003;-72
2021/01/28 06:08:09;;;;;;;0.30;0.28;;;15.50;60.50;;;;;;6339467;22;20350;-72
2021/01/28 06:10:35;;;;;;;0.55;0.40;;;15.50;60.50;;;;;;6227630;22;20001;-72
2021/01/28 06:13:12;;;;;;;3.17;0.50;;;15.50;60.50;;;;;;6339047;22;20003;-73
2021/01/28 06:15:44;;;;;;;1.08;0.60;;;15.50;60.50;;;;;;6339306;22;20005;-72
2021/01/28 06:18:24;;;;;;;0.28;0.20;;;15.50;60.60;;;;;;6311515;22;20379;-72
2021/01/28 06:20:58;;;;;;;0.63;0.32;;;15.50;60.60;;;;;;6311601;22;20057;-72
2021/01/28 06:23:24;;;;;;;0.35;0.30;;;15.50;60.70;;;;;;6339300;22;19999;-72
2021/01/28 06:26:00;;;;;;;2.35;0.30;;;15.40;60.70;;;;;;6339425;22;20033;-73
2021/01/28 06:28:57;;;;;;;0.55;0.40;;;15.40;60.60;;;;;;6310885;22;20026;-73
2021/01/28 06:31:31;;;;;;;0.40;0.40;;;15.40;60.60;;;;;;6311332;22;20049;-73
2021/01/28 06:34:18;;;;;;;0.40;0.30;;;15.40;60.70;;;;;;6311055;22;20006;-73
2021/01/28 06:36:47;;;;;;;0.50;0.40;;;15.40;60.70;;;;;;6336530;22;20061;-73
2021/01/28 06:39:32;;;;;;;;;;;15.40;60.70;;;;;;6311918;22;20006;-73
2021/01/28 06:42:23;;;;;;;0.85;0.30;;;15.40;60.80;;;;;;6336960;22;19906;-73
2021/01/28 06:45:17;;;;;;;0.13;0.13;;;15.40;60.80;;;;;;6338031;22;20415;-72
2021/01/28 06:48:01;;;;;;;0.80;0.43;;;15.30;60.80;;;;;;6299336;22;20048;-74
2021/01/28 06:50:37;;;;;;;0.45;0.43;;;15.30;60.90;;;;;;6308132;22;20309;-74
2021/01/28 06:53:42;;;;;;;0.20;0.20;;;15.30;60.90;;;;;;6337334;22;19998;-74
2021/01/28 06:56:19;;;;;;;0.30;0.22;;;15.30;60.90;;;;;;6310465;22;20549;-73
2021/01/28 06:59:10;;;;;;;0.85;0.35;;;15.30;61.00;;;;;;6310493;22;20431;-72
2021/01/28 07:01:51;;;;;;;0.30;0.20;;;15.30;61.00;;;;;;6311082;22;20332;-73
2021/01/28 07:04:45;;;;;;;0.60;0.60;;;15.30;61.00;;;;;;6311118;22;20416;-73
2021/01/28 07:07:24;;;;;;;0.93;0.35;;;15.40;61.00;;;;;;6336239;22;20074;-73
2021/01/28 07:10:14;;;;;;;0.50;0.28;;;15.30;61.00;;;;;;6337601;22;19996;-73
2021/01/28 07:12:46;;;;;;;0.45;0.45;;;15.30;61.10;;;;;;6335770;22;20093;-73
2021/01/28 07:15:13;;;;;;;0.80;0.40;;;15.30;61.10;;;;;;6336090;22;20033;-72
2021/01/28 07:17:49;;;;;;;0.30;0.30;;;15.30;61.10;;;;;;6309867;22;19999;-72
2021/01/28 07:20:30;;;;;;;0.57;0.43;;;15.30;61.20;;;;;;6336843;22;20065;-73
2021/01/28 07:23:33;;;;;;;0.40;0.30;;;15.30;61.20;;;;;;6337632;22;20443;-73
2021/01/28 07:26:19;;;;;;;0.30;0.25;;;15.30;61.20;;;;;;6338322;22;20076;-71
2021/01/28 07:28:51;;;;;;;0.15;0.15;;;15.30;61.20;;;;;;6310661;22;20034;-73
2021/01/28 07:31:43;;;;;;;0.35;0.30;;;15.40;61.20;;;;;;6310679;22;20003;-73
2021/01/28 07:34:15;;;;;;;1.80;0.60;;;15.40;61.10;;;;;;6338166;22;20083;-73
2021/01/28 07:36:44;;;;;;;0.75;0.20;;;15.40;61.10;;;;;;6338090;22;20081;-73
2021/01/28 07:39:29;;;;;;;0.47;0.40;;;15.40;61.10;;;;;;6338723;22;20003;-73
2021/01/28 07:42:22;;;;;;;0.45;0.20;;;15.40;61.00;;;;;;6310613;22;20077;-73
2021/01/28 07:44:50;;;;;;;0.95;0.30;;;15.40;61.00;;;;;;6310198;22;20399;-73
2021/01/28 07:47:36;;;;;;;0.52;0.40;;;15.50;61.00;;;;;;6310480;22;20013;-73
2021/01/28 07:50:35;;;;;;;1.30;0.28;;;15.50;60.90;;;;;;6316483;22;20007;-72
2021/01/28 07:53:34;;;;;;;0.50;0.30;;;15.50;60.80;;;;;;6337774;22;20079;-73
2021/01/28 07:56:00;;;;;;;2.13;0.43;;;15.60;60.80;;;;;;6337868;22;19995;-73
2021/01/28 07:58:43;;;;;;;1.80;0.28;;;15.50;60.80;;;;;;6336644;22;20003;-73
2021/01/28 08:01:13;;;;;;;1.13;0.43;;;15.60;60.70;;;;;;6336393;22;20097;-73
2021/01/28 08:04:07;;;;;;;0.20;0.10;;;15.60;60.60;;;;;;6337027;22;20030;-73
2021/01/28 08:06:37;;;;;;;0.60;0.40;;;15.60;60.60;;;;;;6309556;22;20025;-73
2021/01/28 08:09:08;;;;;;;0.70;0.50;;;15.60;60.50;;;;;;6336734;22;20431;-73
2021/01/28 08:11:34;;;;;;;0.75;0.52;;;15.60;60.50;;;;;;6336520;22;20014;-73
2021/01/28 08:14:02;;;;;;;0.30;0.30;;;15.70;60.40;;;;;;6336248;22;20012;-73
2021/01/28 08:16:30;;;;;;;1.35;0.40;;;15.70;60.40;;;;;;6336582;22;19999;-73
2021/01/28 08:19:04;;;;;;;0.40;0.30;;;15.70;60.30;;;;;;6336763;22;20026;-73
2021/01/28 08:21:35;;;;;;;0.30;0.30;;;15.70;60.30;;;;;;6337074;22;19991;-73
2021/01/28 08:24:34;;;;;;;1.25;0.30;;;15.70;60.30;;;;;;6336523;22;20059;-72
2021/01/28 08:27:18;;;;;;;1.13;0.40;;;15.70;60.30;;;;;;6336529;22;20425;-73
2021/01/28 08:29:44;;;;;;;0.47;0.35;;;15.70;60.30;;;;;;6336514;22;19994;-73
2021/01/28 08:32:26;;;;;;;2.85;0.40;;;15.70;60.40;;;;;;6308865;22;19995;-74
2021/01/28 08:35:12;;;;;;;0.55;0.30;;;15.70;60.30;;;;;;6336718;22;20060;-73
2021/01/28 08:37:38;;;;;;;0.28;0.28;;;15.70;60.30;;;;;;6336730;22;20464;-73
2021/01/28 08:40:19;;;;;;;1.50;0.38;;;15.70;60.40;;;;;;6336931;22;20041;-73
2021/01/28 08:42:44;;;;;;;0.70;0.30;;;15.70;60.30;;;;;;6337074;22;19998;-73
2021/01/28 08:45:29;;;;;;;0.60;0.50;;;15.70;60.30;;;;;;6335224;22;20386;-73
2021/01/28 08:48:00;;;;;;;0.50;0.50;;;15.70;60.20;;;;;;6336256;22;19998;-73
2021/01/28 08:50:31;;;;;;;0.57;0.20;;;15.70;60.20;;;;;;6336103;22;20324;-74
2021/01/28 08:53:03;;;;;;;0.22;0.20;;;15.70;60.30;;;;;;6308593;22;20060;-74
2021/01/28 08:55:40;;;;;;;0.73;0.35;;;15.70;60.30;;;;;;6336806;22;20073;-73
2021/01/28 08:58:28;;;;;;;0.50;0.35;;;15.70;60.30;;;;;;6337051;22;20002;-73
2021/01/28 09:00:59;;;;;;;0.38;0.20;;;15.70;60.30;;;;;;6310593;22;20041;-73
2021/01/28 09:03:31;;;;;;;0.32;0.30;;;15.70;60.20;;;;;;6311144;22;20090;-73
2021/01/28 09:06:01;;;;;;;0.43;0.22;;;15.70;60.30;;;;;;6339596;22;20006;-73
2021/01/28 09:08:36;;;;;;;0.93;0.40;;;15.70;60.30;;;;;;6339311;22;20001;-73
2021/01/28 09:11:26;;;;;;;0.50;0.40;;;15.60;60.30;;;;;;6337829;22;20442;-73
2021/01/28 09:14:15;;;;;;;0.32;0.28;;;15.60;60.30;;;;;;6338741;22;20467;-73
2021/01/28 09:17:01;;;;;;;0.20;0.20;;;15.60;60.40;;;;;;6337760;22;19995;-73
2021/01/28 09:19:30;;;;;;;0.70;0.45;;;15.60;60.50;;;;;;6338983;22;20380;-73
2021/01/28 09:22:22;;;;;;;0.30;0.28;;;15.60;60.50;;;;;;6310411;22;20037;-73
2021/01/28 09:24:49;;;;;;;0.60;0.25;;;15.60;60.60;;;;;;6310494;22;20034;-73
2021/01/28 09:27:15;;;;;;;0.68;0.40;;;15.50;60.50;;;;;;6337792;22;19995;-73
2021/01/28 09:29:42;;;;;;;3.05;0.30;;;15.50;60.60;;;;;;6311030;22;20010;-73
2021/01/28 09:32:33;;;;;;;0.20;0.20;;;15.50;60.60;;;;;;6310694;22;20033;-73
2021/01/28 09:35:20;;;;;;;0.50;0.30;;;15.50;60.70;;;;;;6311013;22;20459;-73
2021/01/28 09:38:02;;;;;;;0.80;0.20;;;15.50;60.70;;;;;;6339112;22;19991;-73
2021/01/28 09:40:35;;;;;;;1.13;0.20;;;15.50;60.70;;;;;;6311528;22;20379;-74
2021/01/28 09:43:23;;;;;;;0.30;0.22;;;15.50;60.70;;;;;;6311228;22;20057;-73
2021/01/28 09:46:35;;;;;;;0.88;0.20;;;15.50;60.70;;;;;;6311159;22;20057;-73
2021/01/28 09:49:01;;;;;;;1.27;0.45;;;15.50;60.70;;;;;;6335642;22;19998;-73
2021/01/28 09:51:45;;;;;;;0.40;0.40;;;15.60;60.60;;;;;;6310913;22;20006;-73
2021/01/28 09:54:11;;;;;;;0.82;0.40;;;15.60;60.60;;;;;;6339279;22;20010;-72
2021/01/28 09:56:37;;;;;;;1.38;0.38;;;15.60;60.60;;;;;;6338645;22;20078;-73
2021/01/28 09:59:08;;;;;;;1.42;0.50;;;15.60;60.50;;;;;;6337787;22;20006;-73
2021/01/28 10:01:38;;;;;;;2.08;0.20;;;15.50;60.50;;;;;;6335568;22;20479;-73
2021/01/28 10:04:04;;;;;;;0.43;0.30;;;15.60;60.40;;;;;;6333975;22;20006;-73
2021/01/28 10:06:34;;;;;;;1.40;0.45;;;15.60;60.50;;;;;;6336296;22;19998;-73
2021/01/28 10:09:04;;;;;;;2.22;0.30;;;15.60;60.50;;;;;;6336186;22;19998;-73
2021/01/28 10:11:30;;;;;;;1.60;1.10;;;15.60;60.50;;;;;;6311137;22;20031;-73
2021/01/28 10:13:56;;;;;;;0.55;0.30;;;15.70;60.40;;;;;;6338206;22;20056;-73
2021/01/28 10:16:22;;;;;;;0.50;0.30;;;15.70;60.30;;;;;;6311180;22;20010;-73
2021/01/28 10:18:52;;;;;;;3.45;0.35;;;15.70;60.30;;;;;;6339229;22;20401;-73
2021/01/28 10:21:17;;;;;;;0.73;0.20;;;15.70;60.30;;;;;;6337924;22;19998;-73
2021/01/28 10:23:43;;;;;;;0.43;0.30;;;15.70;60.30;;;;;;6339304;22;20352;-73
2021/01/28 10:26:09;;;;;;;0.38;0.20;;;15.70;60.20;;;;;;6311766;22;20420;-73
2021/01/28 10:28:47;;;;;;;0.80;0.30;;;15.70;60.20;;;;;;6338783;22;20009;-73
2021/01/28 10:31:17;;;;;;;0.30;0.30;;;15.70;60.20;;;;;;6311477;22;20082;-73
2021/01/28 10:33:47;;;;;;;0.40;0.22;;;15.80;60.10;;;;;;6310835;22;20011;-73
2021/01/28 10:36:13;;;;;;;0.70;0.35;;;15.80;60.10;;;;;;6338907;22;20010;-73
2021/01/28 10:38:38;;;;;;;0.40;0.35;;;15.80;60.10;;;;;;6339381;22;19995;-73
2021/01/28 10:41:09;;;;;;;2.20;0.43;;;15.80;60.10;;;;;;6338872;22;20020;-73
2021/01/28 10:43:39;;;;;;;1.83;0.20;;;15.70;60.10;;;;;;6310626;22;20003;-73
2021/01/28 10:46:05;;;;;;;1.20;0.43;;;15.70;60.00;;;;;;6338520;22;20021;-73
2021/01/28 10:48:31;;;;;;;0.82;0.30;;;15.70;60.10;;;;;;6338407;22;20420;-73
2021/01/28 10:50:56;;;;;;;0.45;0.32;;;15.80;60.00;;;;;;6338890;22;19995;-73
2021/01/28 10:53:22;;;;;;;0.77;0.52;;;15.80;60.10;;;;;;6336974;22;20038;-73
2021/01/28 10:55:51;;;;;;;0.60;0.20;;;15.70;60.00;;;;;;6311083;22;20093;-73
2021/01/28 10:58:17;;;;;;;1.00;0.43;;;15.80;60.00;;;;;;6336711;22;20001;-73
2021/01/28 11:00:47;;;;;;;1.25;0.30;;;15.80;60.10;;;;;;6337417;22;20015;-73
2021/01/28 11:03:12;;;;;;;0.45;0.22;;;15.70;60.10;;;;;;6337421;22;20085;-73
2021/01/28 11:05:42;;;;;;;1.20;0.50;;;15.80;60.10;;;;;;6335677;22;20087;-73
2021/01/28 11:08:09;;;;;;;2.45;0.65;;;15.80;60.10;;;;;;6309244;22;20076;-73
2021/01/28 11:10:34;;;;;;;0.20;0.20;;;15.80;60.00;;;;;;6336893;22;20002;-73
2021/01/28 11:13:01;;;;;;;1.25;0.50;;;15.80;60.00;;;;;;6335905;22;20007;-73
2021/01/28 11:15:41;;;;;;;0.80;0.30;;;15.80;60.10;;;;;;6336757;22;20002;-73
2021/01/28 11:18:11;;;;;;;1.45;0.40;;;15.70;60.10;;;;;;6336967;22;20065;-73
2021/01/28 11:20:37;;;;;;;0.70;0.32;;;15.70;60.20;;;;;;6335247;22;20416;-73
2021/01/28 11:23:07;;;;;;;0.45;0.20;;;15.70;60.30;;;;;;6308794;22;20010;-73
2021/01/28 11:25:36;;;;;;;0.82;0.60;;;15.60;60.30;;;;;;6336271;22;20132;-73
2021/01/28 11:28:06;;;;;;;0.52;0.30;;;15.60;60.50;;;;;;6308498;22;20007;-73
2021/01/28 11:30:34;;;;;;;0.70;0.20;;;15.60;60.50;;;;;;6336177;22;20003;-73
2021/01/28 11:33:00;;;;;;;1.60;0.20;;;15.60;60.60;;;;;;6308308;22;20007;-73
2021/01/28 11:35:36;;;;;;;0.77;0.73;;;15.60;60.60;;;;;;6303630;22;20009;-74
2021/01/28 11:38:04;;;;;;;1.77;0.30;;;15.60;60.70;;;;;;6308526;22;20329;-74
2021/01/28 11:40:35;;;;;;;0.40;0.40;;;15.60;60.70;;;;;;6308621;22;20025;-73
2021/01/28 11:43:04;;;;;;;0.85;0.20;;;15.50;60.70;;;;;;6336197;22;20082;-73
2021/01/28 11:45:32;;;;;;;0.45;0.25;;;15.50;60.70;;;;;;6308592;22;19999;-73
2021/01/28 11:47:58;;;;;;;0.73;0.52;;;15.50;60.80;;;;;;6333940;22;20018;-72
2021/01/28 11:50:24;;;;;;;1.33;0.38;;;15.50;60.80;;;;;;6308905;22;20010;-73
2021/01/28 11:52:55;;;;;;;0.22;0.22;;;15.50;60.80;;;;;;6308866;22;20060;-73
2021/01/28 11:55:26;;;;;;;0.45;0.32;;;15.50;60.70;;;;;;6335363;22;20021;-72
2021/01/28 11:57:52;;;;;;;0.43;0.30;;;15.50;60.80;;;;;;6336049;22;20317;-73
2021/01/28 12:00:33;;;;;;;1.85;0.32;;;15.50;60.80;;;;;;6268715;22;1544898;-73
2021/01/28 12:03:03;;;;;;;1.45;0.82;;;15.50;60.80;;;;;;6338001;22;19999;-72
2021/01/28 12:05:29;;;;;;;0.52;0.30;;;15.50;60.80;;;;;;6335862;22;19999;-73
2021/01/28 12:07:56;;;;;;;1.27;0.32;;;15.50;60.80;;;;;;6338445;22;20002;-73
2021/01/28 12:10:27;;;;;;;0.77;0.30;;;15.50;60.80;;;;;;6338254;22;20456;-73
2021/01/28 12:12:57;;;;;;;0.82;0.32;;;15.50;60.80;;;;;;6309726;22;20417;-73
2021/01/28 12:15:36;;;;;;;3.05;0.68;;;15.50;60.80;;;;;;6336567;22;20010;-72
2021/01/28 12:18:07;;;;;;;5.78;0.50;;;15.50;60.80;;;;;;6338845;22;20040;-75
2021/01/28 12:20:33;;;;;;;2.92;0.40;;;15.50;60.80;;;;;;6309936;22;20026;-74
2021/01/28 12:22:59;;;;;;;0.90;0.50;;;15.60;60.40;;;;;;6337896;22;20365;-73
2021/01/28 12:25:25;;;;;;;6.68;1.02;;;15.60;60.20;;;;;;6337076;22;20032;-73
2021/01/28 12:27:51;;;;;;;2.88;0.30;;;15.60;60.20;;;;;;6335521;22;20037;-72
2021/01/28 12:30:22;;;;;;;2.78;0.50;;;15.70;60.70;;;;;;6336946;22;20006;-71
2021/01/28 12:32:53;;;;;;;1.80;0.35;;;15.70;60.90;;;;;;6303981;22;20009;-70
2021/01/28 12:38:33;;;;;;;3.67;0.40;;;15.80;62.70;;;;;;6309241;22;20030;-72
2021/01/28 12:41:04;;;;;;;3.53;0.32;;;15.80;64.10;;;;;;6332813;22;20041;-72
2021/01/28 12:43:30;;;;;;;4.30;0.80;;;15.90;65.30;;;;;;6332642;22;20422;-70
2021/01/28 12:45:57;;;;;;;3.42;0.52;;;15.90;67.40;;;;;;6307594;22;20067;-71
2021/01/28 12:48:23;;;;;;;0.68;0.50;;;16.00;68.80;;;;;;6305472;22;20003;-72
2021/01/28 12:50:54;;;;;;;4.78;0.40;;;16.00;70.30;;;;;;6305235;22;20440;-72
2021/01/28 12:53:22;;;;;;;9.85;0.95;;;16.10;71.20;;;;;;6307387;22;20006;-71
2021/01/28 12:55:48;;;;;;;0.85;0.38;;;16.10;73.10;;;;;;6307644;22;20007;-73
2021/01/28 12:58:18;;;;;;;4.82;0.68;;;16.10;74.40;;;;;;6306677;22;20065;-72
2021/01/28 13:00:43;;;;;;;2.58;0.77;;;16.20;74.20;;;;;;6308234;22;20029;-72
2021/01/28 13:03:09;;;;;;;2.05;0.82;;;16.20;75.60;;;;;;6308388;22;20317;-71
2021/01/28 13:05:35;;;;;;;2.08;0.63;;;16.20;76.60;;;;;;6306250;22;20357;-71
2021/01/28 13:08:00;;;;;;;4.97;0.77;;;16.30;77.80;;;;;;6308202;22;19995;-72
2021/01/28 13:10:26;;;;;;;8.43;1.17;;;16.30;79.50;;;;;;6308312;22;19999;-72
2021/01/28 13:12:53;;;;;;;4.30;0.82;;;16.40;80.40;;;;;;6306647;22;20425;-71
2021/01/28 13:15:21;;;;;;;6.55;1.00;;;16.40;81.60;;;;;;6308578;22;20007;-72